sensor_id;sensor_type;location;lat;lon;timestamp;P1;durP1;ratioP1;P2;durP2;ratioP2
3911;SDS011;1971;51.778;10.330;2022-11-15T00:01:52;5.40;;;5.00;;
3911;SDS011;1971;51.778;10.330;2022-11-15T00:04:41;4.50;;;4.10;;
3911;SDS011;1971;51.778;10.330;2022-11-15T00:07:30;4.30;;;3.90;;
3911;SDS011;1971;51.778;10.330;2022-11-15T00:10:39;4.30;;;3.90;;
3911;SDS011;1971;51.778;10.330;2022-11-15T00:13:28;4.30;;;3.80;;
3911;SDS011;1971;51.778;10.330;2022-11-15T00:16:18;4.73;;;4.33;;
3911;SDS011;1971;51.778;10.330;2022-11-15T00:19:10;4.40;;;4.10;;
3911;SDS011;1971;51.778;10.330;2022-11-15T00:21:59;4.40;;;4.10;;
3911;SDS011;1971;51.778;10.330;2022-11-15T00:24:48;4.33;;;4.03;;
3911;SDS011;1971;51.778;10.330;2022-11-15T00:27:39;4.57;;;4.23;;
3911;SDS011;1971;51.778;10.330;2022-11-15T00:30:29;4.20;;;3.90;;
3911;SDS011;1971;51.778;10.330;2022-11-15T00:33:20;5.13;;;4.63;;
3911;SDS011;1971;51.778;10.330;2022-11-15T00:36:11;4.47;;;4.17;;
3911;SDS011;1971;51.778;10.330;2022-11-15T00:39:00;4.40;;;4.00;;
3911;SDS011;1971;51.778;10.330;2022-11-15T00:41:51;4.03;;;3.73;;
3911;SDS011;1971;51.778;10.330;2022-11-15T00:44:40;5.37;;;4.30;;
3911;SDS011;1971;51.778;10.330;2022-11-15T00:47:29;4.67;;;4.27;;
3911;SDS011;1971;51.778;10.330;2022-11-15T00:50:18;4.97;;;4.03;;
3911;SDS011;1971;51.778;10.330;2022-11-15T00:53:10;4.80;;;4.40;;
3911;SDS011;1971;51.778;10.330;2022-11-15T00:56:00;4.60;;;4.20;;
3911;SDS011;1971;51.778;10.330;2022-11-15T00:58:49;6.80;;;4.50;;
3911;SDS011;1971;51.778;10.330;2022-11-15T01:01:38;5.20;;;4.70;;
3911;SDS011;1971;51.778;10.330;2022-11-15T01:04:27;4.50;;;4.10;;
3911;SDS011;1971;51.778;10.330;2022-11-15T01:07:16;4.93;;;4.57;;
3911;SDS011;1971;51.778;10.330;2022-11-15T01:10:09;4.83;;;4.20;;
3911;SDS011;1971;51.778;10.330;2022-11-15T01:12:58;4.77;;;4.33;;
3911;SDS011;1971;51.778;10.330;2022-11-15T01:15:47;5.27;;;4.77;;
3911;SDS011;1971;51.778;10.330;2022-11-15T01:18:36;4.77;;;4.20;;
3911;SDS011;1971;51.778;10.330;2022-11-15T01:21:26;5.30;;;4.80;;
3911;SDS011;1971;51.778;10.330;2022-11-15T01:24:15;4.17;;;3.83;;
3911;SDS011;1971;51.778;10.330;2022-11-15T01:27:08;4.53;;;4.10;;
3911;SDS011;1971;51.778;10.330;2022-11-15T01:29:57;4.43;;;3.77;;
3911;SDS011;1971;51.778;10.330;2022-11-15T01:32:46;4.60;;;4.10;;
3911;SDS011;1971;51.778;10.330;2022-11-15T01:35:37;4.30;;;4.00;;
3911;SDS011;1971;51.778;10.330;2022-11-15T01:38:27;4.27;;;3.97;;
3911;SDS011;1971;51.778;10.330;2022-11-15T01:41:20;3.93;;;3.63;;
3911;SDS011;1971;51.778;10.330;2022-11-15T01:47:31;4.07;;;3.60;;
3911;SDS011;1971;51.778;10.330;2022-11-15T01:50:24;4.37;;;3.97;;
3911;SDS011;1971;51.778;10.330;2022-11-15T01:53:16;4.60;;;4.20;;
3911;SDS011;1971;51.778;10.330;2022-11-15T01:56:09;6.10;;;3.90;;
3911;SDS011;1971;51.778;10.330;2022-11-15T01:59:03;3.80;;;3.50;;
3911;SDS011;1971;51.778;10.330;2022-11-15T02:01:59;5.30;;;4.57;;
3911;SDS011;1971;51.778;10.330;2022-11-15T02:04:48;4.70;;;4.20;;
3911;SDS011;1971;51.778;10.330;2022-11-15T02:07:37;4.53;;;4.07;;
3911;SDS011;1971;51.778;10.330;2022-11-15T02:10:27;8.20;;;3.80;;
3911;SDS011;1971;51.778;10.330;2022-11-15T02:13:15;4.17;;;3.87;;
3911;SDS011;1971;51.778;10.330;2022-11-15T02:16:07;4.20;;;3.80;;
3911;SDS011;1971;51.778;10.330;2022-11-15T02:19:07;5.33;;;4.20;;
3911;SDS011;1971;51.778;10.330;2022-11-15T02:22:10;4.20;;;3.80;;
3911;SDS011;1971;51.778;10.330;2022-11-15T02:25:20;4.43;;;3.87;;
3911;SDS011;1971;51.778;10.330;2022-11-15T02:28:33;4.23;;;3.83;;
3911;SDS011;1971;51.778;10.330;2022-11-15T02:31:44;5.03;;;4.20;;
3911;SDS011;1971;51.778;10.330;2022-11-15T02:34:41;4.30;;;3.90;;
3911;SDS011;1971;51.778;10.330;2022-11-15T02:37:39;3.97;;;3.60;;
3911;SDS011;1971;51.778;10.330;2022-11-15T02:40:35;5.10;;;3.80;;
3911;SDS011;1971;51.778;10.330;2022-11-15T02:43:30;4.30;;;4.00;;
3911;SDS011;1971;51.778;10.330;2022-11-15T02:46:34;4.40;;;4.00;;
3911;SDS011;1971;51.778;10.330;2022-11-15T02:49:43;4.27;;;3.87;;
3911;SDS011;1971;51.778;10.330;2022-11-15T02:52:34;5.83;;;5.33;;
3911;SDS011;1971;51.778;10.330;2022-11-15T02:55:26;7.13;;;5.00;;
3911;SDS011;1971;51.778;10.330;2022-11-15T02:58:28;4.67;;;4.27;;
3911;SDS011;1971;51.778;10.330;2022-11-15T03:01:38;5.60;;;4.17;;
3911;SDS011;1971;51.778;10.330;2022-11-15T03:04:36;4.13;;;3.80;;
3911;SDS011;1971;51.778;10.330;2022-11-15T03:07:34;4.33;;;4.00;;
3911;SDS011;1971;51.778;10.330;2022-11-15T03:10:32;3.77;;;3.47;;
3911;SDS011;1971;51.778;10.330;2022-11-15T03:13:30;4.10;;;3.70;;
3911;SDS011;1971;51.778;10.330;2022-11-15T03:16:25;6.77;;;4.60;;
3911;SDS011;1971;51.778;10.330;2022-11-15T03:19:20;4.90;;;4.20;;
3911;SDS011;1971;51.778;10.330;2022-11-15T03:22:16;5.03;;;4.63;;
3911;SDS011;1971;51.778;10.330;2022-11-15T03:25:19;4.00;;;3.70;;
3911;SDS011;1971;51.778;10.330;2022-11-15T03:28:14;4.63;;;4.23;;
3911;SDS011;1971;51.778;10.330;2022-11-15T03:31:07;4.77;;;4.37;;
3911;SDS011;1971;51.778;10.330;2022-11-15T03:34:14;5.10;;;3.90;;
3911;SDS011;1971;51.778;10.330;2022-11-15T03:37:08;4.17;;;3.87;;
3911;SDS011;1971;51.778;10.330;2022-11-15T03:40:00;4.13;;;3.80;;
3911;SDS011;1971;51.778;10.330;2022-11-15T03:42:54;4.37;;;3.97;;
3911;SDS011;1971;51.778;10.330;2022-11-15T03:45:50;4.20;;;3.80;;
3911;SDS011;1971;51.778;10.330;2022-11-15T03:48:46;4.20;;;3.90;;
3911;SDS011;1971;51.778;10.330;2022-11-15T03:51:39;5.30;;;3.73;;
3911;SDS011;1971;51.778;10.330;2022-11-15T03:54:29;3.90;;;3.60;;
3911;SDS011;1971;51.778;10.330;2022-11-15T03:57:17;5.37;;;3.80;;
3911;SDS011;1971;51.778;10.330;2022-11-15T04:00:09;3.80;;;3.50;;
3911;SDS011;1971;51.778;10.330;2022-11-15T04:03:00;4.30;;;4.00;;
3911;SDS011;1971;51.778;10.330;2022-11-15T04:05:49;3.60;;;3.30;;
3911;SDS011;1971;51.778;10.330;2022-11-15T04:08:38;4.10;;;3.80;;
3911;SDS011;1971;51.778;10.330;2022-11-15T04:11:27;4.40;;;4.00;;
3911;SDS011;1971;51.778;10.330;2022-11-15T04:14:16;3.63;;;3.37;;
3911;SDS011;1971;51.778;10.330;2022-11-15T04:17:07;4.60;;;4.30;;
3911;SDS011;1971;51.778;10.330;2022-11-15T04:19:56;5.07;;;4.17;;
3911;SDS011;1971;51.778;10.330;2022-11-15T04:22:58;4.10;;;3.70;;
3911;SDS011;1971;51.778;10.330;2022-11-15T04:26:01;4.67;;;4.00;;
3911;SDS011;1971;51.778;10.330;2022-11-15T04:28:52;5.33;;;4.03;;
3911;SDS011;1971;51.778;10.330;2022-11-15T04:31:53;4.30;;;4.00;;
3911;SDS011;1971;51.778;10.330;2022-11-15T04:34:44;3.57;;;3.27;;
3911;SDS011;1971;51.778;10.330;2022-11-15T04:37:33;3.70;;;3.40;;
3911;SDS011;1971;51.778;10.330;2022-11-15T04:40:19;3.47;;;3.17;;
3911;SDS011;1971;51.778;10.330;2022-11-15T04:43:07;5.30;;;4.53;;
3911;SDS011;1971;51.778;10.330;2022-11-15T04:45:56;3.90;;;3.60;;
3911;SDS011;1971;51.778;10.330;2022-11-15T04:48:45;3.70;;;3.50;;
3911;SDS011;1971;51.778;10.330;2022-11-15T04:51:45;4.17;;;3.47;;
3911;SDS011;1971;51.778;10.330;2022-11-15T04:54:34;3.80;;;3.43;;
3911;SDS011;1971;51.778;10.330;2022-11-15T04:57:23;3.37;;;3.17;;
3911;SDS011;1971;51.778;10.330;2022-11-15T05:00:13;3.80;;;3.50;;
3911;SDS011;1971;51.778;10.330;2022-11-15T05:03:04;3.43;;;3.23;;
3911;SDS011;1971;51.778;10.330;2022-11-15T05:06:05;4.27;;;3.87;;
3911;SDS011;1971;51.778;10.330;2022-11-15T05:08:57;4.47;;;4.13;;
3911;SDS011;1971;51.778;10.330;2022-11-15T05:11:47;4.03;;;3.73;;
3911;SDS011;1971;51.778;10.330;2022-11-15T05:14:36;4.13;;;3.83;;
3911;SDS011;1971;51.778;10.330;2022-11-15T05:17:24;4.90;;;4.23;;
3911;SDS011;1971;51.778;10.330;2022-11-15T05:20:13;5.47;;;5.07;;
3911;SDS011;1971;51.778;10.330;2022-11-15T05:23:02;4.50;;;4.10;;
3911;SDS011;1971;51.778;10.330;2022-11-15T05:25:53;4.10;;;3.80;;
3911;SDS011;1971;51.778;10.330;2022-11-15T05:28:53;3.83;;;3.50;;
3911;SDS011;1971;51.778;10.330;2022-11-15T05:31:42;5.23;;;4.10;;
3911;SDS011;1971;51.778;10.330;2022-11-15T05:34:31;4.07;;;3.77;;
3911;SDS011;1971;51.778;10.330;2022-11-15T05:37:20;3.90;;;3.60;;
3911;SDS011;1971;51.778;10.330;2022-11-15T05:40:09;5.33;;;4.83;;
3911;SDS011;1971;51.778;10.330;2022-11-15T05:43:00;4.27;;;3.93;;
3911;SDS011;1971;51.778;10.330;2022-11-15T05:45:52;4.13;;;3.73;;
3911;SDS011;1971;51.778;10.330;2022-11-15T05:48:41;4.57;;;3.93;;
3911;SDS011;1971;51.778;10.330;2022-11-15T05:51:33;4.17;;;3.83;;
3911;SDS011;1971;51.778;10.330;2022-11-15T05:54:22;4.00;;;3.70;;
3911;SDS011;1971;51.778;10.330;2022-11-15T05:57:13;3.87;;;3.57;;
3911;SDS011;1971;51.778;10.330;2022-11-15T06:00:05;3.53;;;3.23;;
3911;SDS011;1971;51.778;10.330;2022-11-15T06:02:56;4.20;;;3.90;;
3911;SDS011;1971;51.778;10.330;2022-11-15T06:05:44;4.90;;;4.20;;
3911;SDS011;1971;51.778;10.330;2022-11-15T06:08:33;3.77;;;3.47;;
3911;SDS011;1971;51.778;10.330;2022-11-15T06:11:23;3.43;;;3.13;;
3911;SDS011;1971;51.778;10.330;2022-11-15T06:14:11;4.57;;;4.17;;
3911;SDS011;1971;51.778;10.330;2022-11-15T06:17:02;3.80;;;3.50;;
3911;SDS011;1971;51.778;10.330;2022-11-15T06:19:55;4.53;;;3.70;;
3911;SDS011;1971;51.778;10.330;2022-11-15T06:22:44;4.17;;;3.87;;
3911;SDS011;1971;51.778;10.330;2022-11-15T06:25:33;3.50;;;3.17;;
3911;SDS011;1971;51.778;10.330;2022-11-15T06:28:22;3.80;;;3.60;;
3911;SDS011;1971;51.778;10.330;2022-11-15T06:31:11;4.47;;;3.50;;
3911;SDS011;1971;51.778;10.330;2022-11-15T06:34:03;4.20;;;3.90;;
3911;SDS011;1971;51.778;10.330;2022-11-15T06:36:52;4.23;;;3.83;;
3911;SDS011;1971;51.778;10.330;2022-11-15T06:39:41;8.10;;;4.20;;
3911;SDS011;1971;51.778;10.330;2022-11-15T06:42:31;3.50;;;3.30;;
3911;SDS011;1971;51.778;10.330;2022-11-15T06:45:20;9.03;;;4.40;;
3911;SDS011;1971;51.778;10.330;2022-11-15T06:48:08;4.80;;;4.40;;
3911;SDS011;1971;51.778;10.330;2022-11-15T06:51:00;4.23;;;3.90;;
3911;SDS011;1971;51.778;10.330;2022-11-15T06:53:50;3.90;;;3.60;;
3911;SDS011;1971;51.778;10.330;2022-11-15T06:56:38;3.50;;;3.30;;
3911;SDS011;1971;51.778;10.330;2022-11-15T06:59:27;3.63;;;3.20;;
3911;SDS011;1971;51.778;10.330;2022-11-15T07:02:25;3.70;;;3.10;;
3911;SDS011;1971;51.778;10.330;2022-11-15T07:05:14;3.60;;;3.30;;
3911;SDS011;1971;51.778;10.330;2022-11-15T07:08:06;3.77;;;3.13;;
3911;SDS011;1971;51.778;10.330;2022-11-15T07:10:54;3.40;;;3.10;;
3911;SDS011;1971;51.778;10.330;2022-11-15T07:13:47;3.60;;;2.60;;
3911;SDS011;1971;51.778;10.330;2022-11-15T07:16:36;3.40;;;3.07;;
3911;SDS011;1971;51.778;10.330;2022-11-15T07:19:25;4.33;;;3.37;;
3911;SDS011;1971;51.778;10.330;2022-11-15T07:22:14;3.17;;;2.97;;
3911;SDS011;1971;51.778;10.330;2022-11-15T07:25:05;3.47;;;3.17;;
3911;SDS011;1971;51.778;10.330;2022-11-15T07:27:55;3.60;;;3.37;;
3911;SDS011;1971;51.778;10.330;2022-11-15T07:30:45;2.80;;;2.60;;
3911;SDS011;1971;51.778;10.330;2022-11-15T07:33:34;7.90;;;3.60;;
3911;SDS011;1971;51.778;10.330;2022-11-15T07:36:22;2.87;;;2.67;;
3911;SDS011;1971;51.778;10.330;2022-11-15T07:39:11;3.10;;;2.90;;
3911;SDS011;1971;51.778;10.330;2022-11-15T07:42:02;3.87;;;3.57;;
3911;SDS011;1971;51.778;10.330;2022-11-15T07:45:04;4.93;;;3.20;;
3911;SDS011;1971;51.778;10.330;2022-11-15T07:47:56;2.93;;;2.73;;
3911;SDS011;1971;51.778;10.330;2022-11-15T07:50:45;3.33;;;3.03;;
3911;SDS011;1971;51.778;10.330;2022-11-15T07:53:34;5.70;;;3.93;;
3911;SDS011;1971;51.778;10.330;2022-11-15T07:56:23;3.90;;;3.60;;
3911;SDS011;1971;51.778;10.330;2022-11-15T07:59:14;3.53;;;3.07;;
3911;SDS011;1971;51.778;10.330;2022-11-15T08:02:04;3.03;;;2.73;;
3911;SDS011;1971;51.778;10.330;2022-11-15T08:04:53;3.70;;;3.37;;
3911;SDS011;1971;51.778;10.330;2022-11-15T08:07:44;3.40;;;3.10;;
3911;SDS011;1971;51.778;10.330;2022-11-15T08:10:37;3.63;;;3.33;;
3911;SDS011;1971;51.778;10.330;2022-11-15T08:13:27;3.30;;;2.90;;
3911;SDS011;1971;51.778;10.330;2022-11-15T08:16:19;3.33;;;3.03;;
3911;SDS011;1971;51.778;10.330;2022-11-15T08:19:07;3.57;;;3.27;;
3911;SDS011;1971;51.778;10.330;2022-11-15T08:21:56;3.23;;;2.67;;
3911;SDS011;1971;51.778;10.330;2022-11-15T08:24:46;3.57;;;3.27;;
3911;SDS011;1971;51.778;10.330;2022-11-15T08:27:35;3.67;;;2.47;;
3911;SDS011;1971;51.778;10.330;2022-11-15T08:30:24;4.37;;;3.97;;
3911;SDS011;1971;51.778;10.330;2022-11-15T08:33:16;3.17;;;2.87;;
3911;SDS011;1971;51.778;10.330;2022-11-15T08:36:05;3.57;;;3.03;;
3911;SDS011;1971;51.778;10.330;2022-11-15T08:38:54;3.53;;;3.23;;
3911;SDS011;1971;51.778;10.330;2022-11-15T08:41:43;3.17;;;2.97;;
3911;SDS011;1971;51.778;10.330;2022-11-15T08:44:33;3.13;;;2.93;;
3911;SDS011;1971;51.778;10.330;2022-11-15T08:47:23;3.80;;;3.40;;
3911;SDS011;1971;51.778;10.330;2022-11-15T08:50:15;3.07;;;2.50;;
3911;SDS011;1971;51.778;10.330;2022-11-15T08:53:05;3.63;;;3.33;;
3911;SDS011;1971;51.778;10.330;2022-11-15T08:55:54;2.97;;;2.40;;
3911;SDS011;1971;51.778;10.330;2022-11-15T08:58:42;4.23;;;2.60;;
3911;SDS011;1971;51.778;10.330;2022-11-15T09:01:33;3.00;;;2.80;;
3911;SDS011;1971;51.778;10.330;2022-11-15T09:04:22;2.70;;;2.50;;
3911;SDS011;1971;51.778;10.330;2022-11-15T09:07:14;2.97;;;2.77;;
3911;SDS011;1971;51.778;10.330;2022-11-15T09:10:04;4.97;;;3.00;;
3911;SDS011;1971;51.778;10.330;2022-11-15T09:12:56;3.37;;;3.17;;
3911;SDS011;1971;51.778;10.330;2022-11-15T09:15:45;2.93;;;2.73;;
3911;SDS011;1971;51.778;10.330;2022-11-15T09:18:34;2.70;;;2.50;;
3911;SDS011;1971;51.778;10.330;2022-11-15T09:21:23;3.10;;;2.80;;
3911;SDS011;1971;51.778;10.330;2022-11-15T09:24:14;2.90;;;2.70;;
3911;SDS011;1971;51.778;10.330;2022-11-15T09:27:03;4.17;;;3.07;;
3911;SDS011;1971;51.778;10.330;2022-11-15T09:29:52;3.07;;;2.87;;
3911;SDS011;1971;51.778;10.330;2022-11-15T09:32:41;3.17;;;2.97;;
3911;SDS011;1971;51.778;10.330;2022-11-15T09:35:30;3.23;;;3.03;;
3911;SDS011;1971;51.778;10.330;2022-11-15T09:38:20;2.80;;;2.60;;
3911;SDS011;1971;51.778;10.330;2022-11-15T09:41:21;3.20;;;2.90;;
3911;SDS011;1971;51.778;10.330;2022-11-15T09:44:42;3.23;;;3.03;;
3911;SDS011;1971;51.778;10.330;2022-11-15T09:47:49;3.37;;;3.07;;
3911;SDS011;1971;51.778;10.330;2022-11-15T09:51:03;3.07;;;2.80;;
3911;SDS011;1971;51.778;10.330;2022-11-15T09:53:39;2.77;;;2.57;;
3911;SDS011;1971;51.778;10.330;2022-11-15T10:00:16;2.50;;;2.30;;
3911;SDS011;1971;51.778;10.330;2022-11-15T10:03:12;3.63;;;3.33;;
3911;SDS011;1971;51.778;10.330;2022-11-15T10:05:53;2.50;;;2.40;;
3911;SDS011;1971;51.778;10.330;2022-11-15T10:08:33;6.50;;;2.50;;
3911;SDS011;1971;51.778;10.330;2022-11-15T10:11:25;3.00;;;2.63;;
3911;SDS011;1971;51.778;10.330;2022-11-15T10:14:26;2.40;;;2.20;;
3911;SDS011;1971;51.778;10.330;2022-11-15T10:20:26;2.90;;;2.07;;
3911;SDS011;1971;51.778;10.330;2022-11-15T10:22:58;2.67;;;2.47;;
3911;SDS011;1971;51.778;10.330;2022-11-15T10:25:31;3.37;;;3.07;;
3911;SDS011;1971;51.778;10.330;2022-11-15T10:28:06;2.97;;;2.77;;
3911;SDS011;1971;51.778;10.330;2022-11-15T10:33:58;3.10;;;2.90;;
3911;SDS011;1971;51.778;10.330;2022-11-15T10:36:45;2.93;;;2.73;;
3911;SDS011;1971;51.778;10.330;2022-11-15T10:39:23;2.17;;;1.97;;
3911;SDS011;1971;51.778;10.330;2022-11-15T10:41:56;2.90;;;2.57;;
3911;SDS011;1971;51.778;10.330;2022-11-15T10:44:45;2.33;;;2.13;;
3911;SDS011;1971;51.778;10.330;2022-11-15T10:47:28;2.73;;;2.53;;
3911;SDS011;1971;51.778;10.330;2022-11-15T10:53:01;1.70;;;1.53;;
3911;SDS011;1971;51.778;10.330;2022-11-15T10:55:32;2.23;;;2.13;;
3911;SDS011;1971;51.778;10.330;2022-11-15T10:58:04;2.47;;;2.27;;
3911;SDS011;1971;51.778;10.330;2022-11-15T11:00:52;2.00;;;1.80;;
3911;SDS011;1971;51.778;10.330;2022-11-15T11:03:33;2.03;;;1.83;;
3911;SDS011;1971;51.778;10.330;2022-11-15T11:06:08;2.27;;;2.07;;
3911;SDS011;1971;51.778;10.330;2022-11-15T11:08:40;1.90;;;1.80;;
3911;SDS011;1971;51.778;10.330;2022-11-15T11:11:22;3.00;;;2.77;;
3911;SDS011;1971;51.778;10.330;2022-11-15T11:13:53;4.47;;;2.33;;
3911;SDS011;1971;51.778;10.330;2022-11-15T11:22:18;1.83;;;1.73;;
3911;SDS011;1971;51.778;10.330;2022-11-15T11:25:11;2.10;;;1.93;;
3911;SDS011;1971;51.778;10.330;2022-11-15T11:27:52;1.93;;;1.83;;
3911;SDS011;1971;51.778;10.330;2022-11-15T11:30:33;2.57;;;2.37;;
3911;SDS011;1971;51.778;10.330;2022-11-15T11:33:17;2.67;;;2.23;;
3911;SDS011;1971;51.778;10.330;2022-11-15T11:35:57;2.40;;;2.20;;
3911;SDS011;1971;51.778;10.330;2022-11-15T11:44:39;2.47;;;2.27;;
3911;SDS011;1971;51.778;10.330;2022-11-15T11:47:19;2.23;;;2.13;;
3911;SDS011;1971;51.778;10.330;2022-11-15T11:49:55;2.87;;;2.67;;
3911;SDS011;1971;51.778;10.330;2022-11-15T11:52:33;4.00;;;2.73;;
3911;SDS011;1971;51.778;10.330;2022-11-15T11:55:12;2.20;;;2.10;;
3911;SDS011;1971;51.778;10.330;2022-11-15T11:57:48;2.73;;;2.30;;
3911;SDS011;1971;51.778;10.330;2022-11-15T12:00:23;2.77;;;2.57;;
3911;SDS011;1971;51.778;10.330;2022-11-15T12:03:01;3.17;;;2.73;;
3911;SDS011;1971;51.778;10.330;2022-11-15T12:05:39;2.40;;;2.30;;
3911;SDS011;1971;51.778;10.330;2022-11-15T12:11:13;3.40;;;2.83;;
3911;SDS011;1971;51.778;10.330;2022-11-15T12:13:49;3.70;;;3.23;;
3911;SDS011;1971;51.778;10.330;2022-11-15T12:16:28;2.73;;;2.53;;
3911;SDS011;1971;51.778;10.330;2022-11-15T12:19:00;3.17;;;2.80;;
3911;SDS011;1971;51.778;10.330;2022-11-15T12:21:35;3.40;;;2.47;;
3911;SDS011;1971;51.778;10.330;2022-11-15T12:24:15;3.00;;;2.80;;
3911;SDS011;1971;51.778;10.330;2022-11-15T12:26:52;3.27;;;2.97;;
3911;SDS011;1971;51.778;10.330;2022-11-15T12:32:56;2.60;;;2.40;;
3911;SDS011;1971;51.778;10.330;2022-11-15T12:35:31;2.53;;;2.40;;
3911;SDS011;1971;51.778;10.330;2022-11-15T12:41:28;2.40;;;2.20;;
3911;SDS011;1971;51.778;10.330;2022-11-15T12:44:03;2.87;;;2.50;;
3911;SDS011;1971;51.778;10.330;2022-11-15T12:49:48;3.23;;;2.93;;
3911;SDS011;1971;51.778;10.330;2022-11-15T12:52:18;2.77;;;2.53;;
3911;SDS011;1971;51.778;10.330;2022-11-15T12:54:56;3.43;;;3.07;;
3911;SDS011;1971;51.778;10.330;2022-11-15T12:57:53;2.73;;;2.30;;
3911;SDS011;1971;51.778;10.330;2022-11-15T13:03:25;2.53;;;2.10;;
3911;SDS011;1971;51.778;10.330;2022-11-15T13:06:06;2.73;;;2.50;;
3911;SDS011;1971;51.778;10.330;2022-11-15T13:08:39;4.00;;;2.60;;
3911;SDS011;1971;51.778;10.330;2022-11-15T13:17:33;2.80;;;2.60;;
3911;SDS011;1971;51.778;10.330;2022-11-15T13:20:20;3.07;;;2.80;;
3911;SDS011;1971;51.778;10.330;2022-11-15T13:22:53;2.70;;;2.30;;
3911;SDS011;1971;51.778;10.330;2022-11-15T13:25:51;3.77;;;2.60;;
3911;SDS011;1971;51.778;10.330;2022-11-15T13:28:50;2.83;;;2.20;;
3911;SDS011;1971;51.778;10.330;2022-11-15T13:31:26;3.07;;;2.57;;
3911;SDS011;1971;51.778;10.330;2022-11-15T13:34:03;2.80;;;2.60;;
3911;SDS011;1971;51.778;10.330;2022-11-15T13:37:08;2.70;;;2.50;;
3911;SDS011;1971;51.778;10.330;2022-11-15T13:40:09;2.60;;;2.40;;
3911;SDS011;1971;51.778;10.330;2022-11-15T13:42:50;3.10;;;2.80;;
3911;SDS011;1971;51.778;10.330;2022-11-15T13:45:21;2.83;;;2.50;;
3911;SDS011;1971;51.778;10.330;2022-11-15T13:47:53;2.27;;;2.10;;
3911;SDS011;1971;51.778;10.330;2022-11-15T13:50:27;2.63;;;2.43;;
3911;SDS011;1971;51.778;10.330;2022-11-15T13:53:02;2.90;;;2.70;;
3911;SDS011;1971;51.778;10.330;2022-11-15T13:55:34;3.73;;;3.43;;
3911;SDS011;1971;51.778;10.330;2022-11-15T13:58:05;3.40;;;3.00;;
3911;SDS011;1971;51.778;10.330;2022-11-15T14:00:40;2.20;;;2.00;;
3911;SDS011;1971;51.778;10.330;2022-11-15T14:03:14;2.27;;;2.17;;
3911;SDS011;1971;51.778;10.330;2022-11-15T14:06:02;3.30;;;2.70;;
3911;SDS011;1971;51.778;10.330;2022-11-15T14:08:38;2.50;;;2.30;;
3911;SDS011;1971;51.778;10.330;2022-11-15T14:11:13;4.00;;;3.63;;
3911;SDS011;1971;51.778;10.330;2022-11-15T14:13:59;2.50;;;2.30;;
3911;SDS011;1971;51.778;10.330;2022-11-15T14:16:44;3.23;;;2.67;;
3911;SDS011;1971;51.778;10.330;2022-11-15T14:22:13;2.97;;;2.37;;
3911;SDS011;1971;51.778;10.330;2022-11-15T14:24:47;4.93;;;4.50;;
3911;SDS011;1971;51.778;10.330;2022-11-15T14:30:57;3.03;;;2.83;;
3911;SDS011;1971;51.778;10.330;2022-11-15T14:33:36;3.93;;;3.63;;
3911;SDS011;1971;51.778;10.330;2022-11-15T14:58:52;2.43;;;2.23;;
3911;SDS011;1971;51.778;10.330;2022-11-15T15:02:38;3.70;;;2.77;;
3911;SDS011;1971;51.778;10.330;2022-11-15T15:10:05;3.90;;;2.50;;
3911;SDS011;1971;51.778;10.330;2022-11-15T15:13:45;2.97;;;2.67;;
3911;SDS011;1971;51.778;10.330;2022-11-15T15:17:06;2.60;;;2.40;;
3911;SDS011;1971;51.778;10.330;2022-11-15T15:20:07;3.50;;;3.13;;
3911;SDS011;1971;51.778;10.330;2022-11-15T15:23:00;10.70;;;7.70;;
3911;SDS011;1971;51.778;10.330;2022-11-15T15:26:32;12.33;;;9.10;;
3911;SDS011;1971;51.778;10.330;2022-11-15T15:29:20;13.40;;;12.00;;
3911;SDS011;1971;51.778;10.330;2022-11-15T15:32:10;6.33;;;5.73;;
3911;SDS011;1971;51.778;10.330;2022-11-15T15:35:01;3.53;;;3.23;;
3911;SDS011;1971;51.778;10.330;2022-11-15T15:41:33;2.53;;;2.33;;
3911;SDS011;1971;51.778;10.330;2022-11-15T15:44:10;2.87;;;2.60;;
3911;SDS011;1971;51.778;10.330;2022-11-15T15:46:43;3.80;;;3.50;;
3911;SDS011;1971;51.778;10.330;2022-11-15T15:49:19;5.67;;;5.17;;
3911;SDS011;1971;51.778;10.330;2022-11-15T15:52:33;4.00;;;3.70;;
3911;SDS011;1971;51.778;10.330;2022-11-15T15:55:13;3.63;;;3.33;;
3911;SDS011;1971;51.778;10.330;2022-11-15T15:58:05;2.60;;;2.40;;
3911;SDS011;1971;51.778;10.330;2022-11-15T16:00:51;2.93;;;2.50;;
3911;SDS011;1971;51.778;10.330;2022-11-15T16:03:22;3.47;;;3.00;;
3911;SDS011;1971;51.778;10.330;2022-11-15T16:09:42;4.73;;;4.07;;
3911;SDS011;1971;51.778;10.330;2022-11-15T16:13:11;6.37;;;5.77;;
3911;SDS011;1971;51.778;10.330;2022-11-15T16:16:18;2.70;;;2.33;;
3911;SDS011;1971;51.778;10.330;2022-11-15T16:19:21;2.60;;;2.40;;
3911;SDS011;1971;51.778;10.330;2022-11-15T16:21:59;3.37;;;2.20;;
3911;SDS011;1971;51.778;10.330;2022-11-15T16:24:37;2.60;;;2.30;;
3911;SDS011;1971;51.778;10.330;2022-11-15T16:27:23;2.20;;;1.93;;
3911;SDS011;1971;51.778;10.330;2022-11-15T16:30:29;2.60;;;2.17;;
3911;SDS011;1971;51.778;10.330;2022-11-15T16:33:00;2.53;;;2.33;;
3911;SDS011;1971;51.778;10.330;2022-11-15T16:35:33;3.30;;;1.93;;
3911;SDS011;1971;51.778;10.330;2022-11-15T16:38:04;3.13;;;2.23;;
3911;SDS011;1971;51.778;10.330;2022-11-15T16:40:34;2.30;;;2.03;;
3911;SDS011;1971;51.778;10.330;2022-11-15T16:43:04;2.80;;;2.00;;
3911;SDS011;1971;51.778;10.330;2022-11-15T16:45:38;3.13;;;1.90;;
3911;SDS011;1971;51.778;10.330;2022-11-15T16:48:15;2.13;;;1.80;;
3911;SDS011;1971;51.778;10.330;2022-11-15T16:50:53;2.23;;;1.90;;
3911;SDS011;1971;51.778;10.330;2022-11-15T16:53:25;4.70;;;2.47;;
3911;SDS011;1971;51.778;10.330;2022-11-15T16:55:56;2.43;;;2.27;;
3911;SDS011;1971;51.778;10.330;2022-11-15T16:58:26;2.50;;;2.33;;
3911;SDS011;1971;51.778;10.330;2022-11-15T17:01:02;2.60;;;2.40;;
3911;SDS011;1971;51.778;10.330;2022-11-15T17:03:32;1.67;;;1.57;;
3911;SDS011;1971;51.778;10.330;2022-11-15T17:06:04;1.63;;;1.53;;
3911;SDS011;1971;51.778;10.330;2022-11-15T17:08:36;2.83;;;2.63;;
3911;SDS011;1971;51.778;10.330;2022-11-15T17:11:09;2.00;;;1.80;;
3911;SDS011;1971;51.778;10.330;2022-11-15T17:13:44;2.30;;;2.10;;
3911;SDS011;1971;51.778;10.330;2022-11-15T17:16:18;2.43;;;2.30;;
3911;SDS011;1971;51.778;10.330;2022-11-15T17:18:49;3.73;;;2.40;;
3911;SDS011;1971;51.778;10.330;2022-11-15T17:21:20;2.50;;;1.97;;
3911;SDS011;1971;51.778;10.330;2022-11-15T17:23:59;2.47;;;2.20;;
3911;SDS011;1971;51.778;10.330;2022-11-15T17:26:30;2.53;;;1.93;;
3911;SDS011;1971;51.778;10.330;2022-11-15T17:29:06;1.90;;;1.80;;
3911;SDS011;1971;51.778;10.330;2022-11-15T17:31:39;1.60;;;1.50;;
3911;SDS011;1971;51.778;10.330;2022-11-15T17:34:10;3.10;;;2.30;;
3911;SDS011;1971;51.778;10.330;2022-11-15T17:36:41;2.27;;;1.67;;
3911;SDS011;1971;51.778;10.330;2022-11-15T17:39:12;5.00;;;4.50;;
3911;SDS011;1971;51.778;10.330;2022-11-15T17:41:44;3.10;;;2.80;;
3911;SDS011;1971;51.778;10.330;2022-11-15T17:44:15;4.93;;;2.87;;
3911;SDS011;1971;51.778;10.330;2022-11-15T17:46:51;2.23;;;2.03;;
3911;SDS011;1971;51.778;10.330;2022-11-15T17:49:22;2.43;;;1.83;;
3911;SDS011;1971;51.778;10.330;2022-11-15T17:51:52;2.70;;;1.90;;
3911;SDS011;1971;51.778;10.330;2022-11-15T17:54:23;3.23;;;2.00;;
3911;SDS011;1971;51.778;10.330;2022-11-15T17:56:53;2.17;;;2.07;;
3911;SDS011;1971;51.778;10.330;2022-11-15T17:59:25;2.73;;;2.53;;
3911;SDS011;1971;51.778;10.330;2022-11-15T18:01:58;2.70;;;2.50;;
3911;SDS011;1971;51.778;10.330;2022-11-15T18:04:30;2.33;;;2.03;;
3911;SDS011;1971;51.778;10.330;2022-11-15T18:07:11;2.17;;;2.00;;
3911;SDS011;1971;51.778;10.330;2022-11-15T18:09:56;2.70;;;1.90;;
3911;SDS011;1971;51.778;10.330;2022-11-15T18:12:27;2.23;;;2.13;;
3911;SDS011;1971;51.778;10.330;2022-11-15T18:14:57;6.50;;;2.37;;
3911;SDS011;1971;51.778;10.330;2022-11-15T18:17:31;2.17;;;2.03;;
3911;SDS011;1971;51.778;10.330;2022-11-15T18:20:03;2.20;;;2.00;;
3911;SDS011;1971;51.778;10.330;2022-11-15T18:22:38;2.23;;;2.03;;
3911;SDS011;1971;51.778;10.330;2022-11-15T18:25:12;2.30;;;2.10;;
3911;SDS011;1971;51.778;10.330;2022-11-15T18:27:44;2.93;;;2.10;;
3911;SDS011;1971;51.778;10.330;2022-11-15T18:30:22;2.23;;;2.13;;
3911;SDS011;1971;51.778;10.330;2022-11-15T18:32:58;3.43;;;2.43;;